Map

Track Data

SID SEASON NUMBER BASIN SUBBASIN NAME ISO_TIME NATURE LAT LON WMO_WIND WMO_PRES WMO_AGENCY TRACK_TYPE DIST2LAND LANDFALL IFLAG USA_AGENCY USA_ATCF_ID USA_LAT USA_LON USA_RECORD USA_STATUS USA_WIND USA_PRES USA_SSHS USA_R34_NE USA_R34_SE USA_R34_SW USA_R34_NW USA_R50_NE USA_R50_SE USA_R50_SW USA_R50_NW USA_R64_NE USA_R64_SE USA_R64_SW USA_R64_NW USA_POCI USA_ROCI USA_RMW USA_EYE TOKYO_LAT TOKYO_LON TOKYO_GRADE TOKYO_WIND TOKYO_PRES TOKYO_R50_DIR TOKYO_R50_LONG TOKYO_R50_SHORT TOKYO_R30_DIR TOKYO_R30_LONG TOKYO_R30_SHORT TOKYO_LAND CMA_LAT CMA_LON CMA_CAT CMA_WIND CMA_PRES HKO_LAT HKO_LON HKO_CAT HKO_WIND HKO_PRES NEWDELHI_LAT NEWDELHI_LON NEWDELHI_GRADE NEWDELHI_WIND NEWDELHI_PRES NEWDELHI_CI NEWDELHI_DP NEWDELHI_POCI REUNION_LAT REUNION_LON REUNION_TYPE REUNION_WIND REUNION_PRES REUNION_TNUM REUNION_CI REUNION_RMW REUNION_R34_NE REUNION_R34_SE REUNION_R34_SW REUNION_R34_NW REUNION_R50_NE REUNION_R50_SE REUNION_R50_SW REUNION_R50_NW REUNION_R64_NE REUNION_R64_SE REUNION_R64_SW REUNION_R64_NW BOM_LAT BOM_LON BOM_TYPE BOM_WIND BOM_PRES BOM_TNUM BOM_CI BOM_RMW BOM_R34_NE BOM_R34_SE BOM_R34_SW BOM_R34_NW BOM_R50_NE BOM_R50_SE BOM_R50_SW BOM_R50_NW BOM_R64_NE BOM_R64_SE BOM_R64_SW BOM_R64_NW BOM_ROCI BOM_POCI BOM_EYE BOM_POS_METHOD BOM_PRES_METHOD NADI_LAT NADI_LON NADI_CAT NADI_WIND NADI_PRES WELLINGTON_LAT WELLINGTON_LON WELLINGTON_WIND WELLINGTON_PRES DS824_LAT DS824_LON DS824_STAGE DS824_WIND DS824_PRES TD9636_LAT TD9636_LON TD9636_STAGE TD9636_WIND TD9636_PRES TD9635_LAT TD9635_LON TD9635_WIND TD9635_PRES TD9635_ROCI NEUMANN_LAT NEUMANN_LON NEUMANN_CLASS NEUMANN_WIND NEUMANN_PRES MLC_LAT MLC_LON MLC_CLASS MLC_WIND MLC_PRES USA_GUST BOM_GUST BOM_GUST_PER REUNION_GUST REUNION_GUST_PER USA_SEAHGT USA_SEARAD_NE USA_SEARAD_SE USA_SEARAD_SW USA_SEARAD_NW STORM_SPEED STORM_DIR
1990262S07074 1991 90 SI MM NOT_NAMED 1990-09-19 06:00:00 TS -6.90000 73.8000 main 1615 1610 O___________O_ jtwc_sh SH011991 -6.90000 73.8000 15 -1 -6.90000 73.8000 TC 15 3 306
1990262S07074 1991 90 SI MM NOT_NAMED 1990-09-19 09:00:00 TS -6.80250 73.6625 main 1610 1606 P___________P_ SH011991 -6.80250 73.6625 17 -1 -6.80250 73.6625 TC 17 4 304
1990262S07074 1991 90 SI MM NOT_NAMED 1990-09-19 12:00:00 TS -6.70000 73.5000 main 1611 1606 O___________O_ jtwc_sh SH011991 -6.70000 73.5000 20 -1 -6.70000 73.5000 TC 20 4 300
1990262S07074 1991 90 SI MM NOT_NAMED 1990-09-19 15:00:00 TS -6.59251 73.3000 main 1611 1607 P___________P_ SH011991 -6.59251 73.3000 20 -1 -6.59251 73.3000 TC 20 4 297
1990262S07074 1991 90 SI MM NOT_NAMED 1990-09-19 18:00:00 TS -6.50000 73.1000 main 1613 1608 O___________O_ jtwc_sh SH011991 -6.50000 73.1000 20 -1 -6.50000 73.1000 TC 20 4 293
1990262S07074 1991 90 SI MM NOT_NAMED 1990-09-19 21:00:00 TS -6.44249 72.9425 main 1614 1614 P___________P_ SH011991 -6.44249 72.9425 22 -1 -6.44249 72.9425 TC 22 3 289
1990262S07074 1991 90 SI MM NOT_NAMED 1990-09-20 00:00:00 TS -6.40000 72.8000 main 1620 1620 O___________O_ jtwc_sh SH011991 -6.40000 72.8000 25 -1 -6.40000 72.8000 TC 25 3 288
1990262S07074 1991 90 SI MM NOT_NAMED 1990-09-20 03:00:00 TS -6.35000 72.6500 main 1616 1616 P___________P_ SH011991 -6.35000 72.6500 25 -1 -6.35000 72.6500 TC 25 3 289
1990262S07074 1991 90 SI MM NOT_NAMED 1990-09-20 06:00:00 TS -6.30000 72.5000 main 1628 1624 O___________O_ jtwc_sh SH011991 -6.30000 72.5000 25 -1 -6.30000 72.5000 TC 25 3 290
1990262S07074 1991 90 SI MM NOT_NAMED 1990-09-20 09:00:00 TS -6.24249 72.3575 main 1624 1624 P___________P_ SH011991 -6.24249 72.3575 27 -1 -6.24249 72.3575 TC 27 3 289
1990262S07074 1991 90 SI MM NOT_NAMED 1990-09-20 12:00:00 TS -6.20000 72.2000 main 1636 1636 O___________O_ jtwc_sh SH011991 -6.20000 72.2000 30 -1 -6.20000 72.2000 TC 30 3 282
1990262S07074 1991 90 SI MM NOT_NAMED 1990-09-20 15:00:00 TS -6.16999 72.0150 main 1649 1649 P___________P_ SH011991 -6.16999 72.0150 30 -1 -6.16999 72.0150 TC 30 4 270
1990262S07074 1991 90 SI MM NOT_NAMED 1990-09-20 18:00:00 TS -6.20000 71.8000 main 1661 1661 O___________O_ jtwc_sh SH011991 -6.20000 71.8000 30 -1 -6.20000 71.8000 TC 30 5 251
1990262S07074 1991 90 SI MM NOT_NAMED 1990-09-20 21:00:00 TS -6.31999 71.5650 main 1683 1683 P___________P_ SH011991 -6.31999 71.5650 30 -1 -6.31999 71.5650 TC 30 6 239
1990262S07074 1991 90 SI MM NOT_NAMED 1990-09-21 00:00:00 TS -6.50000 71.3000 main 1720 1720 O___________O_ jtwc_sh SH011991 -6.50000 71.3000 30 -1 -6.50000 71.3000 TC 30 7 236
1990262S07074 1991 90 SI MM NOT_NAMED 1990-09-21 03:00:00 TS -6.70000 71.0075 main 1758 1758 P___________P_ SH011991 -6.70000 71.0075 30 -1 -6.70000 71.0075 TC 30 7 236
1990262S07074 1991 90 SI MM NOT_NAMED 1990-09-21 06:00:00 TS -6.90000 70.7000 main 1796 1796 O___________O_ jtwc_sh SH011991 -6.90000 70.7000 30 -1 -6.90000 70.7000 TC 30 7 239
1990262S07074 1991 90 SI MM NOT_NAMED 1990-09-21 09:00:00 TS -7.05747 70.4075 main 1834 1834 P___________P_ SH011991 -7.05747 70.4075 30 -1 -7.05747 70.4075 TC 30 7 243
1990262S07074 1991 90 SI MM NOT_NAMED 1990-09-21 12:00:00 TS -7.20000 70.1000 main 1863 1863 O___________O_ jtwc_sh SH011991 -7.20000 70.1000 30 -1 -7.20000 70.1000 TC 30 7 246
1990262S07074 1991 90 SI MM NOT_NAMED 1990-09-21 15:00:00 TS -7.34249 69.7575 main 1892 1892 P___________P_ SH011991 -7.34249 69.7575 30 -1 -7.34249 69.7575 TC 30 8 247
1990262S07074 1991 90 SI MM NOT_NAMED 1990-09-21 18:00:00 TS -7.50000 69.4000 main 1892 1853 O___________O_ jtwc_sh SH011991 -7.50000 69.4000 30 -1 -7.50000 69.4000 TC 30 8 243
1990262S07074 1991 90 SI MM NOT_NAMED 1990-09-21 21:00:00 TS -7.69993 69.0650 main 1853 1807 P___________P_ SH011991 -7.69993 69.0650 30 -1 -7.69993 69.0650 TC 30 8 240
1990262S07074 1991 90 SI MM NOT_NAMED 1990-09-22 00:00:00 TS -7.90000 68.7000 main 1807 1771 O___________O_ jtwc_sh SH011991 -7.90000 68.7000 30 -1 -7.90000 68.7000 TC 30 9 246
1990262S07074 1991 90 SI MM NOT_NAMED 1990-09-22 03:00:00 TS -8.05750 68.2650 main 1762 1719 P___________P_ SH011991 -8.05750 68.2650 30 -1 -8.05750 68.2650 TC 30 9 251
1990262S07074 1991 90 SI MM NOT_NAMED 1990-09-22 06:00:00 TS -8.20000 67.8000 main 1719 1683 O___________O_ jtwc_sh SH011991 -8.20000 67.8000 30 -1 -8.20000 67.8000 TC 30 10 252
1990262S07074 1991 90 SI MM NOT_NAMED 1990-09-22 09:00:00 TS -8.35747 67.3425 main 1668 1632 P___________P_ SH011991 -8.35747 67.3425 30 -1 -8.35747 67.3425 TC 30 9 251
1990262S07074 1991 90 SI MM NOT_NAMED 1990-09-22 12:00:00 TS -8.50000 66.9000 main 1632 1597 O___________O_ jtwc_sh SH011991 -8.50000 66.9000 30 -1 -8.50000 66.9000 TC 30 9 253
1990262S07074 1991 90 SI MM NOT_NAMED 1990-09-22 15:00:00 TS -8.61496 66.4850 main 1597 1563 P___________P_ SH011991 -8.61496 66.4850 30 -1 -8.61496 66.4850 TC 30 8 256
1990262S07074 1991 90 SI MM NOT_NAMED 1990-09-22 18:00:00 TS -8.70000 66.1000 main 1563 1535 O___________O_ jtwc_sh SH011991 -8.70000 66.1000 30 -1 -8.70000 66.1000 TC 30 7 258
1990262S07074 1991 90 SI MM NOT_NAMED 1990-09-22 21:00:00 TS -8.77242 65.7500 main 1535 1511 P___________P_ SH011991 -8.77242 65.7500 30 -1 -8.77242 65.7500 TC 30 7 262
1990262S07074 1991 90 SI MM NOT_NAMED 1990-09-23 00:00:00 TS -8.80000 65.4000 main 1511 1488 O___________O_ jtwc_sh SH011991 -8.80000 65.4000 30 -1 -8.80000 65.4000 TC 30 7 270
1990262S07074 1991 90 SI MM NOT_NAMED 1990-09-23 03:00:00 TS -8.77250 65.0000 main 1488 1476 P___________P_ SH011991 -8.77250 65.0000 30 -1 -8.77250 65.0000 TC 30 8 277
1990262S07074 1991 90 SI MM NOT_NAMED 1990-09-23 06:00:00 TS -8.70000 64.6000 main 1476 1465 O___________O_ jtwc_sh SH011991 -8.70000 64.6000 30 -1 -8.70000 64.6000 TC 30 7 283
1990262S07074 1991 90 SI MM NOT_NAMED 1990-09-23 09:00:00 TS -8.59988 64.2650 main 1470 1459 P___________P_ SH011991 -8.59988 64.2650 30 -1 -8.59988 64.2650 TC 30 7 286
1990262S07074 1991 90 SI MM NOT_NAMED 1990-09-23 12:00:00 TS -8.50000 63.9000 main 1459 1450 O___________O_ jtwc_sh SH011991 -8.50000 63.9000 30 -1 -8.50000 63.9000 TC 30 9 282
1990262S07074 1991 90 SI MM NOT_NAMED 1990-09-23 15:00:00 TS -8.42001 63.4224 main 1446 1424 P___________P_ SH011991 -8.42001 63.4224 30 -1 -8.42001 63.4224 TC 30 10 276
1990262S07074 1991 90 SI MM NOT_NAMED 1990-09-23 18:00:00 TS -8.40000 62.9000 main 1424 1393 O___________O_ jtwc_sh SH011991 -8.40000 62.9000 30 -1 -8.40000 62.9000 TC 30 10 266
1990262S07074 1991 90 SI MM NOT_NAMED 1990-09-23 21:00:00 TS -8.48496 62.3926 main 1393 1364 P___________P_ SH011991 -8.48496 62.3926 30 -1 -8.48496 62.3926 TC 30 10 259
1990262S07074 1991 90 SI MM NOT_NAMED 1990-09-24 00:00:00 TS -8.60000 61.9000 main 1364 1340 O___________O_ jtwc_sh SH011991 -8.60000 61.9000 30 -1 -8.60000 61.9000 TC 30 10 259
1990262S07074 1991 90 SI MM NOT_NAMED 1990-09-24 03:00:00 TS -8.66494 61.4350 main 1336 1304 P___________P_ SH011991 -8.66494 61.4350 30 -1 -8.66494 61.4350 TC 30 9 264
1990262S07074 1991 90 SI MM NOT_NAMED 1990-09-24 06:00:00 TS -8.70000 61.0000 main 1304 1264 O___________O_ jtwc_sh SH011991 -8.70000 61.0000 30 -1 -8.70000 61.0000 TC 30 8 267
1990262S07074 1991 90 SI MM NOT_NAMED 1990-09-24 09:00:00 TS -8.70743 60.5925 main 1264 1224 P___________P_ SH011991 -8.70743 60.5925 30 -1 -8.70743 60.5925 TC 30 8 270
1990262S07074 1991 90 SI MM NOT_NAMED 1990-09-24 12:00:00 TS -8.70000 60.2000 main 1224 1184 O___________O_ jtwc_sh SH011991 -8.70000 60.2000 30 -1 -8.70000 60.2000 TC 30 8 271
1990262S07074 1991 90 SI MM NOT_NAMED 1990-09-24 15:00:00 TS -8.69998 59.7925 main 1184 1144 P___________P_ SH011991 -8.69998 59.7925 30 -1 -8.69998 59.7925 TC 30 8 270
1990262S07074 1991 90 SI MM NOT_NAMED 1990-09-24 18:00:00 TS -8.70000 59.4000 main 1144 1114 O___________O_ jtwc_sh SH011991 -8.70000 59.4000 30 -1 -8.70000 59.4000 TC 30 7 270
1990262S07074 1991 90 SI MM NOT_NAMED 1990-09-24 21:00:00 TS -8.69992 59.0500 main 1114 1075 P___________P_ SH011991 -8.69992 59.0500 30 -1 -8.69992 59.0500 TC 30 7 270
1990262S07074 1991 90 SI MM NOT_NAMED 1990-09-25 00:00:00 TS -8.70000 58.7000 main 1075 1036 O___________O_ jtwc_sh SH011991 -8.70000 58.7000 30 -1 -8.70000 58.7000 TC 30 7 270
1990262S07074 1991 90 SI MM NOT_NAMED 1990-09-25 03:00:00 TS -8.70000 58.3000 main 1036 997 P___________P_ SH011991 -8.70000 58.3000 30 -1 -8.70000 58.3000 TC 30 8 270
1990262S07074 1991 90 SI MM NOT_NAMED 1990-09-25 06:00:00 TS -8.70000 57.9000 main 997 969 O___________O_ jtwc_sh SH011991 -8.70000 57.9000 30 -1 -8.70000 57.9000 TC 30 8 270
1990262S07074 1991 90 SI MM NOT_NAMED 1990-09-25 09:00:00 TS -8.70003 57.5375 main 959 931 P___________P_ SH011991 -8.70003 57.5375 27 -1 -8.70003 57.5375 TC 27 7 270
1990262S07074 1991 90 SI MM NOT_NAMED 1990-09-25 12:00:00 TS -8.70000 57.2000 main 931 O___________O_ jtwc_sh SH011991 -8.70000 57.2000 25 -1 -8.70000 57.2000 TC 25 7 270

About IBTrACS Database

This database is a web-friendly format of International Best Track Archive for Climate Stewardship (IBTrACS), a global best track data archive curated by NOAA dating back to 1842.

Updated: 2021-11-26